Kenilworth, Illinois
Current Conditions -  °F | °C
As of 1:52 PM on Tuesday 21 Oct 2014 (Local Time) from KPWK Reporting Station
Overcast Overcast  
Wind Chill: 50°   Ceiling: 2600
Heat Index: 50°   Visibility: 10mi
Dew Point: 40°   Wind: 10mph
Humidity: 68%   Direction: 10°N
Pressure: 30.2"   Gusts: NA
Location:  42.09°N, 87.72°W
Report Text: KPWK 211852Z 01009KT 10SM BKN026 OVC030 10/04 A3020 RMK AO2 SLP228 T01000044
Loading
Personal Weather Stations






























Interactive Weather Map
Tropical Storm Tracking
New forecast layout! Learn more

10-Day Weather Forecast

Advertisements
Track Severe Weather on mobile